sensor_id;sensor_type;location;lat;lon;timestamp;P1;P2;P0
62631;PMS5003;48703;51.248;-0.546;2022-12-18T00:02:23;38.70;32.23;
62631;PMS5003;48703;51.248;-0.546;2022-12-18T00:05:26;37.71;30.68;
62631;PMS5003;48703;51.248;-0.546;2022-12-18T00:08:28;34.52;30.58;
62631;PMS5003;48703;51.248;-0.546;2022-12-18T00:11:30;39.87;33.90;
62631;PMS5003;48703;51.248;-0.546;2022-12-18T00:14:31;41.50;34.16;
62631;PMS5003;48703;51.248;-0.546;2022-12-18T00:17:32;40.83;33.78;
62631;PMS5003;48703;51.248;-0.546;2022-12-18T00:20:35;40.26;35.18;
62631;PMS5003;48703;51.248;-0.546;2022-12-18T00:23:35;41.75;33.94;
62631;PMS5003;48703;51.248;-0.546;2022-12-18T00:26:38;40.26;35.14;
62631;PMS5003;48703;51.248;-0.546;2022-12-18T00:29:38;38.97;34.71;
62631;PMS5003;48703;51.248;-0.546;2022-12-18T00:32:40;38.64;33.54;
62631;PMS5003;48703;51.248;-0.546;2022-12-18T00:35:43;42.04;36.52;
62631;PMS5003;48703;51.248;-0.546;2022-12-18T00:38:44;42.10;37.15;
62631;PMS5003;48703;51.248;-0.546;2022-12-18T00:41:45;41.24;34.83;
62631;PMS5003;48703;51.248;-0.546;2022-12-18T00:44:47;47.38;39.93;
62631;PMS5003;48703;51.248;-0.546;2022-12-18T00:47:49;44.30;38.32;
62631;PMS5003;48703;51.248;-0.546;2022-12-18T00:50:50;44.01;37.91;
62631;PMS5003;48703;51.248;-0.546;2022-12-18T00:53:55;48.69;40.66;
62631;PMS5003;48703;51.248;-0.546;2022-12-18T00:56:53;48.00;40.39;
62631;PMS5003;48703;51.248;-0.546;2022-12-18T00:59:55;49.15;42.25;
62631;PMS5003;48703;51.248;-0.546;2022-12-18T01:02:56;45.07;39.49;
62631;PMS5003;48703;51.248;-0.546;2022-12-18T01:05:57;45.90;40.43;
62631;PMS5003;48703;51.248;-0.546;2022-12-18T01:09:00;51.43;44.51;
62631;PMS5003;48703;51.248;-0.546;2022-12-18T01:12:01;47.99;41.65;
62631;PMS5003;48703;51.248;-0.546;2022-12-18T01:15:03;48.56;41.49;
62631;PMS5003;48703;51.248;-0.546;2022-12-18T01:18:05;49.57;42.01;
62631;PMS5003;48703;51.248;-0.546;2022-12-18T01:21:07;53.57;45.60;
62631;PMS5003;48703;51.248;-0.546;2022-12-18T01:24:09;45.48;39.70;
62631;PMS5003;48703;51.248;-0.546;2022-12-18T01:27:09;47.61;40.97;
62631;PMS5003;48703;51.248;-0.546;2022-12-18T01:30:10;49.84;41.78;
62631;PMS5003;48703;51.248;-0.546;2022-12-18T01:33:11;49.90;40.28;
62631;PMS5003;48703;51.248;-0.546;2022-12-18T01:36:15;49.03;38.59;
62631;PMS5003;48703;51.248;-0.546;2022-12-18T01:39:15;48.75;41.26;
62631;PMS5003;48703;51.248;-0.546;2022-12-18T01:42:17;43.87;39.68;
62631;PMS5003;48703;51.248;-0.546;2022-12-18T01:45:23;44.74;37.74;
62631;PMS5003;48703;51.248;-0.546;2022-12-18T01:48:19;46.93;40.61;
62631;PMS5003;48703;51.248;-0.546;2022-12-18T01:51:20;43.91;37.71;
62631;PMS5003;48703;51.248;-0.546;2022-12-18T01:54:22;52.49;44.96;
62631;PMS5003;48703;51.248;-0.546;2022-12-18T01:57:23;48.90;42.38;
62631;PMS5003;48703;51.248;-0.546;2022-12-18T02:00:24;48.38;39.88;
62631;PMS5003;48703;51.248;-0.546;2022-12-18T02:03:26;44.96;40.38;
62631;PMS5003;48703;51.248;-0.546;2022-12-18T02:06:29;44.54;38.03;
62631;PMS5003;48703;51.248;-0.546;2022-12-18T02:09:30;44.00;38.28;
62631;PMS5003;48703;51.248;-0.546;2022-12-18T02:12:31;46.25;39.94;
62631;PMS5003;48703;51.248;-0.546;2022-12-18T02:15:34;47.28;37.62;
62631;PMS5003;48703;51.248;-0.546;2022-12-18T02:18:35;46.76;39.09;
62631;PMS5003;48703;51.248;-0.546;2022-12-18T02:21:36;45.49;37.82;
62631;PMS5003;48703;51.248;-0.546;2022-12-18T02:24:37;43.84;34.59;
62631;PMS5003;48703;51.248;-0.546;2022-12-18T02:27:37;42.90;36.49;
62631;PMS5003;48703;51.248;-0.546;2022-12-18T02:30:38;44.06;37.19;
62631;PMS5003;48703;51.248;-0.546;2022-12-18T02:33:40;41.09;33.72;
62631;PMS5003;48703;51.248;-0.546;2022-12-18T02:36:41;43.25;35.59;
62631;PMS5003;48703;51.248;-0.546;2022-12-18T02:39:42;40.21;35.82;
62631;PMS5003;48703;51.248;-0.546;2022-12-18T02:42:42;40.09;34.47;
62631;PMS5003;48703;51.248;-0.546;2022-12-18T02:45:46;44.00;34.65;
62631;PMS5003;48703;51.248;-0.546;2022-12-18T02:48:44;45.96;37.91;
62631;PMS5003;48703;51.248;-0.546;2022-12-18T02:51:48;41.15;35.22;
62631;PMS5003;48703;51.248;-0.546;2022-12-18T02:54:50;40.04;34.40;
62631;PMS5003;48703;51.248;-0.546;2022-12-18T02:57:50;43.37;38.03;
62631;PMS5003;48703;51.248;-0.546;2022-12-18T03:00:51;38.16;32.48;
62631;PMS5003;48703;51.248;-0.546;2022-12-18T03:03:52;40.45;34.19;
62631;PMS5003;48703;51.248;-0.546;2022-12-18T03:06:54;38.55;33.06;
62631;PMS5003;48703;51.248;-0.546;2022-12-18T03:09:55;37.17;33.45;
62631;PMS5003;48703;51.248;-0.546;2022-12-18T03:12:58;37.68;35.10;
62631;PMS5003;48703;51.248;-0.546;2022-12-18T03:15:58;39.29;32.59;
62631;PMS5003;48703;51.248;-0.546;2022-12-18T03:20:27;39.96;33.83;
62631;PMS5003;48703;51.248;-0.546;2022-12-18T03:23:02;36.94;30.24;
62631;PMS5003;48703;51.248;-0.546;2022-12-18T03:26:04;39.58;32.01;
62631;PMS5003;48703;51.248;-0.546;2022-12-18T03:29:03;38.07;32.25;
62631;PMS5003;48703;51.248;-0.546;2022-12-18T03:32:04;37.49;31.35;
62631;PMS5003;48703;51.248;-0.546;2022-12-18T03:35:06;32.11;28.36;
62631;PMS5003;48703;51.248;-0.546;2022-12-18T03:38:07;35.32;31.46;
62631;PMS5003;48703;51.248;-0.546;2022-12-18T03:41:10;34.54;30.21;
62631;PMS5003;48703;51.248;-0.546;2022-12-18T03:44:11;36.51;31.94;
62631;PMS5003;48703;51.248;-0.546;2022-12-18T03:47:13;31.41;27.71;
62631;PMS5003;48703;51.248;-0.546;2022-12-18T03:50:14;40.94;31.36;
62631;PMS5003;48703;51.248;-0.546;2022-12-18T03:53:18;31.93;27.13;
62631;PMS5003;48703;51.248;-0.546;2022-12-18T03:56:17;34.45;29.07;
62631;PMS5003;48703;51.248;-0.546;2022-12-18T03:59:19;34.47;27.59;
62631;PMS5003;48703;51.248;-0.546;2022-12-18T04:02:20;31.69;27.40;
62631;PMS5003;48703;51.248;-0.546;2022-12-18T04:05:21;30.46;27.52;
62631;PMS5003;48703;51.248;-0.546;2022-12-18T04:08:22;31.40;28.29;
62631;PMS5003;48703;51.248;-0.546;2022-12-18T04:11:23;32.16;26.17;
62631;PMS5003;48703;51.248;-0.546;2022-12-18T04:14:24;29.75;25.22;
62631;PMS5003;48703;51.248;-0.546;2022-12-18T04:17:26;30.57;25.58;
62631;PMS5003;48703;51.248;-0.546;2022-12-18T04:20:27;26.61;23.49;
62631;PMS5003;48703;51.248;-0.546;2022-12-18T04:23:28;28.85;25.04;
62631;PMS5003;48703;51.248;-0.546;2022-12-18T04:26:31;27.77;25.38;
62631;PMS5003;48703;51.248;-0.546;2022-12-18T04:29:32;27.79;23.94;
62631;PMS5003;48703;51.248;-0.546;2022-12-18T04:32:33;26.41;23.84;
62631;PMS5003;48703;51.248;-0.546;2022-12-18T04:35:35;26.19;23.01;
62631;PMS5003;48703;51.248;-0.546;2022-12-18T04:38:36;30.29;26.29;
62631;PMS5003;48703;51.248;-0.546;2022-12-18T04:41:38;31.51;27.36;
62631;PMS5003;48703;51.248;-0.546;2022-12-18T04:44:40;26.87;21.30;
62631;PMS5003;48703;51.248;-0.546;2022-12-18T04:47:41;28.06;25.40;
62631;PMS5003;48703;51.248;-0.546;2022-12-18T04:50:43;30.29;25.07;
62631;PMS5003;48703;51.248;-0.546;2022-12-18T04:53:44;26.03;22.29;
62631;PMS5003;48703;51.248;-0.546;2022-12-18T04:56:46;25.71;21.60;
62631;PMS5003;48703;51.248;-0.546;2022-12-18T04:59:48;26.41;24.36;
62631;PMS5003;48703;51.248;-0.546;2022-12-18T05:02:49;27.10;23.90;
62631;PMS5003;48703;51.248;-0.546;2022-12-18T05:05:51;26.16;23.35;
62631;PMS5003;48703;51.248;-0.546;2022-12-18T05:08:53;29.15;25.50;
62631;PMS5003;48703;51.248;-0.546;2022-12-18T05:11:54;28.06;23.62;
62631;PMS5003;48703;51.248;-0.546;2022-12-18T05:14:56;29.76;24.28;
62631;PMS5003;48703;51.248;-0.546;2022-12-18T05:17:58;30.90;25.68;
62631;PMS5003;48703;51.248;-0.546;2022-12-18T05:21:00;25.62;23.93;
62631;PMS5003;48703;51.248;-0.546;2022-12-18T05:24:01;26.46;23.64;
62631;PMS5003;48703;51.248;-0.546;2022-12-18T05:27:02;27.53;25.59;
62631;PMS5003;48703;51.248;-0.546;2022-12-18T05:30:03;30.66;26.53;
62631;PMS5003;48703;51.248;-0.546;2022-12-18T05:33:05;29.29;25.47;
62631;PMS5003;48703;51.248;-0.546;2022-12-18T05:36:07;26.93;24.43;
62631;PMS5003;48703;51.248;-0.546;2022-12-18T05:39:08;27.21;25.13;
62631;PMS5003;48703;51.248;-0.546;2022-12-18T05:42:09;32.01;27.87;
62631;PMS5003;48703;51.248;-0.546;2022-12-18T05:45:11;26.23;24.51;
62631;PMS5003;48703;51.248;-0.546;2022-12-18T05:48:12;27.23;25.73;
62631;PMS5003;48703;51.248;-0.546;2022-12-18T05:51:14;29.43;25.86;
62631;PMS5003;48703;51.248;-0.546;2022-12-18T05:54:14;31.28;27.64;
62631;PMS5003;48703;51.248;-0.546;2022-12-18T05:57:16;27.34;24.19;
62631;PMS5003;48703;51.248;-0.546;2022-12-18T06:00:17;27.76;25.88;
62631;PMS5003;48703;51.248;-0.546;2022-12-18T06:03:19;27.23;23.84;
62631;PMS5003;48703;51.248;-0.546;2022-12-18T06:06:21;30.57;26.48;
62631;PMS5003;48703;51.248;-0.546;2022-12-18T06:09:22;32.19;28.43;
62631;PMS5003;48703;51.248;-0.546;2022-12-18T06:12:23;29.26;27.31;
62631;PMS5003;48703;51.248;-0.546;2022-12-18T06:15:24;32.62;27.04;
62631;PMS5003;48703;51.248;-0.546;2022-12-18T06:18:26;30.43;26.94;
62631;PMS5003;48703;51.248;-0.546;2022-12-18T06:21:28;29.09;25.31;
62631;PMS5003;48703;51.248;-0.546;2022-12-18T06:24:29;28.03;25.55;
62631;PMS5003;48703;51.248;-0.546;2022-12-18T06:27:30;29.36;26.36;
62631;PMS5003;48703;51.248;-0.546;2022-12-18T06:30:32;27.22;25.16;
62631;PMS5003;48703;51.248;-0.546;2022-12-18T06:33:33;32.09;27.79;
62631;PMS5003;48703;51.248;-0.546;2022-12-18T06:36:35;30.68;25.32;
62631;PMS5003;48703;51.248;-0.546;2022-12-18T06:39:36;29.74;25.22;
62631;PMS5003;48703;51.248;-0.546;2022-12-18T06:42:38;27.43;23.70;
62631;PMS5003;48703;51.248;-0.546;2022-12-18T06:45:39;28.00;24.94;
62631;PMS5003;48703;51.248;-0.546;2022-12-18T06:48:41;26.70;23.00;
62631;PMS5003;48703;51.248;-0.546;2022-12-18T06:51:42;28.09;23.79;
62631;PMS5003;48703;51.248;-0.546;2022-12-18T06:54:43;29.70;24.57;
62631;PMS5003;48703;51.248;-0.546;2022-12-18T06:57:45;26.87;24.74;
62631;PMS5003;48703;51.248;-0.546;2022-12-18T07:00:46;26.99;22.91;
62631;PMS5003;48703;51.248;-0.546;2022-12-18T07:03:51;29.13;25.94;
62631;PMS5003;48703;51.248;-0.546;2022-12-18T07:06:50;27.49;24.81;
62631;PMS5003;48703;51.248;-0.546;2022-12-18T07:09:52;27.76;22.20;
62631;PMS5003;48703;51.248;-0.546;2022-12-18T07:12:53;27.41;25.20;
62631;PMS5003;48703;51.248;-0.546;2022-12-18T07:15:54;26.62;23.99;
62631;PMS5003;48703;51.248;-0.546;2022-12-18T07:18:55;25.36;22.29;
62631;PMS5003;48703;51.248;-0.546;2022-12-18T07:21:56;25.24;23.31;
62631;PMS5003;48703;51.248;-0.546;2022-12-18T07:24:58;27.97;24.27;
62631;PMS5003;48703;51.248;-0.546;2022-12-18T07:27:59;28.35;24.35;
62631;PMS5003;48703;51.248;-0.546;2022-12-18T07:31:02;25.04;21.13;
62631;PMS5003;48703;51.248;-0.546;2022-12-18T07:34:02;26.49;24.35;
62631;PMS5003;48703;51.248;-0.546;2022-12-18T07:37:03;26.36;22.96;
62631;PMS5003;48703;51.248;-0.546;2022-12-18T07:40:05;24.99;21.67;
62631;PMS5003;48703;51.248;-0.546;2022-12-18T07:43:07;29.29;25.78;
62631;PMS5003;48703;51.248;-0.546;2022-12-18T07:46:09;27.47;23.35;
62631;PMS5003;48703;51.248;-0.546;2022-12-18T07:49:10;25.23;23.68;
62631;PMS5003;48703;51.248;-0.546;2022-12-18T07:52:11;26.64;24.06;
62631;PMS5003;48703;51.248;-0.546;2022-12-18T07:55:13;27.81;24.67;
62631;PMS5003;48703;51.248;-0.546;2022-12-18T07:58:15;28.63;22.47;
62631;PMS5003;48703;51.248;-0.546;2022-12-18T08:01:16;25.31;23.29;
62631;PMS5003;48703;51.248;-0.546;2022-12-18T08:04:17;24.72;22.64;
62631;PMS5003;48703;51.248;-0.546;2022-12-18T08:07:18;29.24;24.77;
62631;PMS5003;48703;51.248;-0.546;2022-12-18T08:10:20;24.33;21.80;
62631;PMS5003;48703;51.248;-0.546;2022-12-18T08:13:22;26.90;24.26;
62631;PMS5003;48703;51.248;-0.546;2022-12-18T08:16:24;26.33;24.13;
62631;PMS5003;48703;51.248;-0.546;2022-12-18T08:19:25;26.55;23.83;
62631;PMS5003;48703;51.248;-0.546;2022-12-18T08:22:26;27.09;24.74;
62631;PMS5003;48703;51.248;-0.546;2022-12-18T08:25:28;29.93;24.22;
62631;PMS5003;48703;51.248;-0.546;2022-12-18T08:28:30;28.19;25.96;
62631;PMS5003;48703;51.248;-0.546;2022-12-18T08:31:31;29.16;26.71;
62631;PMS5003;48703;51.248;-0.546;2022-12-18T08:34:33;27.81;25.90;
62631;PMS5003;48703;51.248;-0.546;2022-12-18T08:37:34;32.90;28.45;
62631;PMS5003;48703;51.248;-0.546;2022-12-18T08:40:37;32.55;29.48;
62631;PMS5003;48703;51.248;-0.546;2022-12-18T08:43:38;32.29;29.62;
62631;PMS5003;48703;51.248;-0.546;2022-12-18T08:46:40;30.40;28.16;
62631;PMS5003;48703;51.248;-0.546;2022-12-18T08:49:40;32.53;28.49;
62631;PMS5003;48703;51.248;-0.546;2022-12-18T08:52:41;32.53;28.94;
62631;PMS5003;48703;51.248;-0.546;2022-12-18T08:55:43;31.55;29.28;
62631;PMS5003;48703;51.248;-0.546;2022-12-18T08:58:44;31.09;27.74;
62631;PMS5003;48703;51.248;-0.546;2022-12-18T09:01:45;33.00;29.52;
62631;PMS5003;48703;51.248;-0.546;2022-12-18T09:04:46;32.88;29.97;
62631;PMS5003;48703;51.248;-0.546;2022-12-18T09:07:48;33.61;29.45;
62631;PMS5003;48703;51.248;-0.546;2022-12-18T09:10:51;32.74;28.51;
62631;PMS5003;48703;51.248;-0.546;2022-12-18T09:13:53;35.06;31.75;
62631;PMS5003;48703;51.248;-0.546;2022-12-18T09:16:54;36.43;32.59;
62631;PMS5003;48703;51.248;-0.546;2022-12-18T09:19:55;37.67;31.99;
62631;PMS5003;48703;51.248;-0.546;2022-12-18T09:22:57;35.03;30.96;
62631;PMS5003;48703;51.248;-0.546;2022-12-18T09:25:58;35.49;32.36;
62631;PMS5003;48703;51.248;-0.546;2022-12-18T09:29:00;39.03;35.41;
62631;PMS5003;48703;51.248;-0.546;2022-12-18T09:32:00;35.28;32.10;
62631;PMS5003;48703;51.248;-0.546;2022-12-18T09:35:02;37.87;34.88;
62631;PMS5003;48703;51.248;-0.546;2022-12-18T09:38:03;40.21;34.06;
62631;PMS5003;48703;51.248;-0.546;2022-12-18T09:41:04;36.75;33.79;
62631;PMS5003;48703;51.248;-0.546;2022-12-18T09:44:09;37.14;32.90;
62631;PMS5003;48703;51.248;-0.546;2022-12-18T09:47:08;40.30;36.75;
62631;PMS5003;48703;51.248;-0.546;2022-12-18T09:50:15;39.76;34.19;
62631;PMS5003;48703;51.248;-0.546;2022-12-18T09:53:12;38.43;34.51;
62631;PMS5003;48703;51.248;-0.546;2022-12-18T09:56:12;39.46;36.25;
62631;PMS5003;48703;51.248;-0.546;2022-12-18T09:59:17;37.45;33.91;
62631;PMS5003;48703;51.248;-0.546;2022-12-18T10:02:15;37.79;34.71;
62631;PMS5003;48703;51.248;-0.546;2022-12-18T10:05:17;39.26;35.45;
62631;PMS5003;48703;51.248;-0.546;2022-12-18T10:08:18;37.97;34.13;
62631;PMS5003;48703;51.248;-0.546;2022-12-18T10:10:36;39.49;36.65;
62631;PMS5003;48703;51.248;-0.546;2022-12-18T10:13:22;40.35;34.74;
62631;PMS5003;48703;51.248;-0.546;2022-12-18T10:16:23;39.62;36.90;
62631;PMS5003;48703;51.248;-0.546;2022-12-18T10:19:27;42.63;37.97;
62631;PMS5003;48703;51.248;-0.546;2022-12-18T10:22:27;38.09;36.43;
62631;PMS5003;48703;51.248;-0.546;2022-12-18T10:25:26;43.22;38.78;
62631;PMS5003;48703;51.248;-0.546;2022-12-18T10:28:27;41.84;38.16;
62631;PMS5003;48703;51.248;-0.546;2022-12-18T10:31:29;44.90;37.50;
62631;PMS5003;48703;51.248;-0.546;2022-12-18T10:34:31;43.70;37.23;
62631;PMS5003;48703;51.248;-0.546;2022-12-18T10:37:31;44.43;39.39;
62631;PMS5003;48703;51.248;-0.546;2022-12-18T10:40:36;46.49;39.88;
62631;PMS5003;48703;51.248;-0.546;2022-12-18T10:43:34;46.62;38.67;
62631;PMS5003;48703;51.248;-0.546;2022-12-18T10:46:35;42.56;38.16;
62631;PMS5003;48703;51.248;-0.546;2022-12-18T10:49:36;44.96;40.03;
62631;PMS5003;48703;51.248;-0.546;2022-12-18T10:52:37;46.00;40.65;
62631;PMS5003;48703;51.248;-0.546;2022-12-18T10:55:38;42.84;38.18;
62631;PMS5003;48703;51.248;-0.546;2022-12-18T10:58:39;46.29;40.96;
62631;PMS5003;48703;51.248;-0.546;2022-12-18T11:01:48;47.99;41.78;
62631;PMS5003;48703;51.248;-0.546;2022-12-18T11:04:49;45.62;41.35;
62631;PMS5003;48703;51.248;-0.546;2022-12-18T11:07:46;44.81;40.52;
62631;PMS5003;48703;51.248;-0.546;2022-12-18T11:10:45;51.72;43.07;
62631;PMS5003;48703;51.248;-0.546;2022-12-18T11:13:50;46.46;42.43;
62631;PMS5003;48703;51.248;-0.546;2022-12-18T11:16:48;50.80;46.33;
62631;PMS5003;48703;51.248;-0.546;2022-12-18T11:19:52;46.34;41.01;
62631;PMS5003;48703;51.248;-0.546;2022-12-18T11:22:54;49.13;43.46;
62631;PMS5003;48703;51.248;-0.546;2022-12-18T11:25:51;48.54;43.71;
62631;PMS5003;48703;51.248;-0.546;2022-12-18T11:28:52;50.80;44.26;
62631;PMS5003;48703;51.248;-0.546;2022-12-18T11:31:52;54.50;47.35;
62631;PMS5003;48703;51.248;-0.546;2022-12-18T11:34:55;49.86;43.30;
62631;PMS5003;48703;51.248;-0.546;2022-12-18T11:37:59;49.20;43.56;
62631;PMS5003;48703;51.248;-0.546;2022-12-18T11:40:58;50.83;46.01;
62631;PMS5003;48703;51.248;-0.546;2022-12-18T11:43:58;49.84;44.16;
62631;PMS5003;48703;51.248;-0.546;2022-12-18T11:47:01;46.20;42.58;
62631;PMS5003;48703;51.248;-0.546;2022-12-18T11:50:02;52.35;47.41;
62631;PMS5003;48703;51.248;-0.546;2022-12-18T11:53:04;50.59;44.76;
62631;PMS5003;48703;51.248;-0.546;2022-12-18T11:56:11;47.86;42.36;
62631;PMS5003;48703;51.248;-0.546;2022-12-18T11:59:08;50.35;44.40;
62631;PMS5003;48703;51.248;-0.546;2022-12-18T12:02:12;51.04;44.87;
62631;PMS5003;48703;51.248;-0.546;2022-12-18T12:05:13;49.29;43.44;
62631;PMS5003;48703;51.248;-0.546;2022-12-18T12:08:11;50.97;43.07;
62631;PMS5003;48703;51.248;-0.546;2022-12-18T12:11:12;50.96;44.56;
62631;PMS5003;48703;51.248;-0.546;2022-12-18T12:14:16;52.35;45.58;
62631;PMS5003;48703;51.248;-0.546;2022-12-18T12:17:15;45.87;41.37;
62631;PMS5003;48703;51.248;-0.546;2022-12-18T12:20:16;50.09;45.04;
62631;PMS5003;48703;51.248;-0.546;2022-12-18T12:23:20;45.25;40.77;
62631;PMS5003;48703;51.248;-0.546;2022-12-18T12:26:18;48.75;42.99;
62631;PMS5003;48703;51.248;-0.546;2022-12-18T12:29:23;45.81;42.17;
62631;PMS5003;48703;51.248;-0.546;2022-12-18T12:32:22;44.56;39.41;
62631;PMS5003;48703;51.248;-0.546;2022-12-18T12:35:25;48.71;42.38;
62631;PMS5003;48703;51.248;-0.546;2022-12-18T12:38:25;44.87;40.52;
62631;PMS5003;48703;51.248;-0.546;2022-12-18T12:41:25;44.09;40.43;
62631;PMS5003;48703;51.248;-0.546;2022-12-18T12:44:26;44.67;40.60;
62631;PMS5003;48703;51.248;-0.546;2022-12-18T12:47:28;42.10;37.30;
62631;PMS5003;48703;51.248;-0.546;2022-12-18T12:50:28;41.28;38.44;
62631;PMS5003;48703;51.248;-0.546;2022-12-18T12:53:32;39.93;36.12;
62631;PMS5003;48703;51.248;-0.546;2022-12-18T12:56:32;38.94;35.34;
62631;PMS5003;48703;51.248;-0.546;2022-12-18T12:59:34;40.15;37.00;
62631;PMS5003;48703;51.248;-0.546;2022-12-18T13:02:34;41.14;35.67;
62631;PMS5003;48703;51.248;-0.546;2022-12-18T13:05:36;38.71;34.03;
62631;PMS5003;48703;51.248;-0.546;2022-12-18T13:08:51;37.78;33.67;
62631;PMS5003;48703;51.248;-0.546;2022-12-18T13:11:39;36.96;32.97;
62631;PMS5003;48703;51.248;-0.546;2022-12-18T13:14:40;33.77;31.00;
62631;PMS5003;48703;51.248;-0.546;2022-12-18T13:17:41;34.79;31.07;
62631;PMS5003;48703;51.248;-0.546;2022-12-18T13:20:43;30.48;27.29;
62631;PMS5003;48703;51.248;-0.546;2022-12-18T13:23:44;31.45;27.10;
62631;PMS5003;48703;51.248;-0.546;2022-12-18T13:26:45;32.94;30.32;
62631;PMS5003;48703;51.248;-0.546;2022-12-18T13:29:47;28.87;27.94;
62631;PMS5003;48703;51.248;-0.546;2022-12-18T13:32:49;31.00;26.74;
62631;PMS5003;48703;51.248;-0.546;2022-12-18T13:35:51;31.59;27.59;
62631;PMS5003;48703;51.248;-0.546;2022-12-18T13:39:33;28.26;26.07;
62631;PMS5003;48703;51.248;-0.546;2022-12-18T13:42:30;27.94;26.25;
62631;PMS5003;48703;51.248;-0.546;2022-12-18T13:44:56;27.01;25.13;
62631;PMS5003;48703;51.248;-0.546;2022-12-18T13:47:58;25.64;23.53;
62631;PMS5003;48703;51.248;-0.546;2022-12-18T13:51:01;26.68;23.57;
62631;PMS5003;48703;51.248;-0.546;2022-12-18T13:54:02;26.57;23.83;
62631;PMS5003;48703;51.248;-0.546;2022-12-18T13:57:03;25.29;22.89;
62631;PMS5003;48703;51.248;-0.546;2022-12-18T14:00:17;25.60;22.00;
62631;PMS5003;48703;51.248;-0.546;2022-12-18T14:03:15;26.62;23.66;
62631;PMS5003;48703;51.248;-0.546;2022-12-18T14:06:08;23.87;22.06;
62631;PMS5003;48703;51.248;-0.546;2022-12-18T14:09:13;22.20;19.19;
62631;PMS5003;48703;51.248;-0.546;2022-12-18T14:12:14;22.10;19.94;
62631;PMS5003;48703;51.248;-0.546;2022-12-18T14:15:17;22.36;20.96;
62631;PMS5003;48703;51.248;-0.546;2022-12-18T14:18:18;19.77;19.10;
62631;PMS5003;48703;51.248;-0.546;2022-12-18T14:21:18;19.93;18.31;
62631;PMS5003;48703;51.248;-0.546;2022-12-18T14:24:19;21.83;19.78;
62631;PMS5003;48703;51.248;-0.546;2022-12-18T14:27:22;20.61;18.61;
62631;PMS5003;48703;51.248;-0.546;2022-12-18T14:30:23;18.67;16.48;
62631;PMS5003;48703;51.248;-0.546;2022-12-18T14:33:25;18.88;17.39;
62631;PMS5003;48703;51.248;-0.546;2022-12-18T14:36:27;17.37;17.31;
62631;PMS5003;48703;51.248;-0.546;2022-12-18T14:39:28;17.73;16.01;
62631;PMS5003;48703;51.248;-0.546;2022-12-18T14:42:30;18.93;16.84;
62631;PMS5003;48703;51.248;-0.546;2022-12-18T14:45:32;18.49;17.16;
62631;PMS5003;48703;51.248;-0.546;2022-12-18T14:48:35;16.10;15.43;
62631;PMS5003;48703;51.248;-0.546;2022-12-18T14:51:34;17.35;16.84;
62631;PMS5003;48703;51.248;-0.546;2022-12-18T14:54:36;13.99;13.04;
62631;PMS5003;48703;51.248;-0.546;2022-12-18T14:57:38;15.94;14.67;
62631;PMS5003;48703;51.248;-0.546;2022-12-18T15:00:40;16.09;14.70;
62631;PMS5003;48703;51.248;-0.546;2022-12-18T15:03:42;15.19;13.70;
62631;PMS5003;48703;51.248;-0.546;2022-12-18T15:06:43;15.37;12.86;
62631;PMS5003;48703;51.248;-0.546;2022-12-18T15:10:00;13.51;12.77;
62631;PMS5003;48703;51.248;-0.546;2022-12-18T15:12:47;15.23;13.66;
62631;PMS5003;48703;51.248;-0.546;2022-12-18T15:15:48;12.83;11.76;
62631;PMS5003;48703;51.248;-0.546;2022-12-18T15:18:50;14.64;13.44;
62631;PMS5003;48703;51.248;-0.546;2022-12-18T15:21:51;15.20;13.75;
62631;PMS5003;48703;51.248;-0.546;2022-12-18T15:24:53;14.74;14.20;
62631;PMS5003;48703;51.248;-0.546;2022-12-18T15:27:55;13.07;12.44;
62631;PMS5003;48703;51.248;-0.546;2022-12-18T15:30:58;12.36;12.36;
62631;PMS5003;48703;51.248;-0.546;2022-12-18T15:34:02;11.49;10.94;
62631;PMS5003;48703;51.248;-0.546;2022-12-18T15:37:00;11.80;11.07;
62631;PMS5003;48703;51.248;-0.546;2022-12-18T15:40:02;9.74;9.74;
62631;PMS5003;48703;51.248;-0.546;2022-12-18T15:43:04;9.61;9.09;
62631;PMS5003;48703;51.248;-0.546;2022-12-18T15:46:06;9.93;9.41;
62631;PMS5003;48703;51.248;-0.546;2022-12-18T15:49:07;8.90;8.54;
62631;PMS5003;48703;51.248;-0.546;2022-12-18T15:52:09;8.81;8.60;
62631;PMS5003;48703;51.248;-0.546;2022-12-18T15:55:11;7.90;7.86;
62631;PMS5003;48703;51.248;-0.546;2022-12-18T15:58:13;8.64;7.86;
62631;PMS5003;48703;51.248;-0.546;2022-12-18T16:01:15;9.27;8.94;
62631;PMS5003;48703;51.248;-0.546;2022-12-18T16:04:17;9.47;9.41;
62631;PMS5003;48703;51.248;-0.546;2022-12-18T16:07:18;7.30;6.46;
62631;PMS5003;48703;51.248;-0.546;2022-12-18T16:10:20;8.89;7.90;
62631;PMS5003;48703;51.248;-0.546;2022-12-18T16:13:22;7.74;7.74;
62631;PMS5003;48703;51.248;-0.546;2022-12-18T16:16:24;7.07;6.97;
62631;PMS5003;48703;51.248;-0.546;2022-12-18T16:19:25;7.50;7.50;
62631;PMS5003;48703;51.248;-0.546;2022-12-18T16:22:27;8.11;7.77;
62631;PMS5003;48703;51.248;-0.546;2022-12-18T16:25:29;8.77;8.17;
62631;PMS5003;48703;51.248;-0.546;2022-12-18T16:28:30;8.59;8.03;
62631;PMS5003;48703;51.248;-0.546;2022-12-18T16:31:32;9.87;9.44;
62631;PMS5003;48703;51.248;-0.546;2022-12-18T16:34:34;10.51;9.64;
62631;PMS5003;48703;51.248;-0.546;2022-12-18T16:37:36;9.04;8.70;
62631;PMS5003;48703;51.248;-0.546;2022-12-18T16:40:38;10.04;9.60;
62631;PMS5003;48703;51.248;-0.546;2022-12-18T16:43:39;9.89;9.57;
62631;PMS5003;48703;51.248;-0.546;2022-12-18T16:46:41;10.86;9.93;
62631;PMS5003;48703;51.248;-0.546;2022-12-18T16:49:43;9.34;9.34;
62631;PMS5003;48703;51.248;-0.546;2022-12-18T16:52:44;9.26;9.26;
62631;PMS5003;48703;51.248;-0.546;2022-12-18T16:55:49;13.04;11.34;
62631;PMS5003;48703;51.248;-0.546;2022-12-18T16:58:49;9.97;9.67;
62631;PMS5003;48703;51.248;-0.546;2022-12-18T17:01:49;10.79;10.31;
62631;PMS5003;48703;51.248;-0.546;2022-12-18T17:04:52;9.91;9.49;
62631;PMS5003;48703;51.248;-0.546;2022-12-18T17:07:53;10.57;8.93;
62631;PMS5003;48703;51.248;-0.546;2022-12-18T17:10:54;11.12;10.39;
62631;PMS5003;48703;51.248;-0.546;2022-12-18T17:13:56;11.47;11.03;
62631;PMS5003;48703;51.248;-0.546;2022-12-18T17:16:58;10.27;9.37;
62631;PMS5003;48703;51.248;-0.546;2022-12-18T17:19:59;9.74;9.10;
62631;PMS5003;48703;51.248;-0.546;2022-12-18T17:23:01;9.10;8.19;
62631;PMS5003;48703;51.248;-0.546;2022-12-18T17:26:03;9.71;8.80;
62631;PMS5003;48703;51.248;-0.546;2022-12-18T17:29:05;9.84;9.29;
62631;PMS5003;48703;51.248;-0.546;2022-12-18T17:32:06;11.40;10.11;
62631;PMS5003;48703;51.248;-0.546;2022-12-18T17:35:08;9.27;9.27;
62631;PMS5003;48703;51.248;-0.546;2022-12-18T17:38:10;10.26;9.11;
62631;PMS5003;48703;51.248;-0.546;2022-12-18T17:41:11;12.99;11.21;
62631;PMS5003;48703;51.248;-0.546;2022-12-18T17:44:13;12.47;11.17;
62631;PMS5003;48703;51.248;-0.546;2022-12-18T17:47:15;11.90;11.33;
62631;PMS5003;48703;51.248;-0.546;2022-12-18T17:50:16;12.77;11.61;
62631;PMS5003;48703;51.248;-0.546;2022-12-18T17:53:18;12.90;12.13;
62631;PMS5003;48703;51.248;-0.546;2022-12-18T17:56:21;12.11;11.13;
62631;PMS5003;48703;51.248;-0.546;2022-12-18T17:59:21;12.31;12.07;
62631;PMS5003;48703;51.248;-0.546;2022-12-18T18:02:22;13.17;12.23;